createdAt,value
2019-01-23T00:01:05.571Z,8.2
2019-01-23T00:04:05.861Z,8.2
2019-01-23T00:07:05.567Z,8.2
2019-01-23T00:10:05.394Z,8
2019-01-23T00:13:05.843Z,8
2019-01-23T00:16:05.884Z,8.4
2019-01-23T00:19:05.480Z,8.5
2019-01-23T00:22:05.838Z,8.5
2019-01-23T00:25:05.626Z,8.5
2019-01-23T00:28:06.225Z,8.1
2019-01-23T00:31:05.888Z,7.8
2019-01-23T00:34:05.465Z,7.8
2019-01-23T00:37:05.784Z,8.2
2019-01-23T00:40:05.719Z,8.3
2019-01-23T00:43:05.408Z,8
2019-01-23T00:46:05.804Z,8.1
2019-01-23T00:49:05.520Z,7.8
2019-01-23T00:52:05.605Z,8.2
2019-01-23T00:55:05.714Z,7.9
2019-01-23T00:58:05.663Z,7.9
2019-01-23T01:01:05.600Z,7.7
2019-01-23T01:04:05.506Z,7.5
2019-01-23T01:07:05.859Z,7.6
2019-01-23T01:10:05.821Z,7.9
2019-01-23T01:13:05.723Z,7.5
2019-01-23T01:16:05.619Z,7.5
2019-01-23T01:19:05.889Z,7.5
2019-01-23T01:22:07.433Z,7.6
2019-01-23T01:25:06.247Z,7.5
2019-01-23T01:28:05.877Z,7.4
2019-01-23T01:31:05.417Z,7.5
2019-01-23T01:34:05.505Z,7.3
2019-01-23T01:37:05.564Z,7.3
2019-01-23T01:40:05.824Z,7.4
2019-01-23T01:43:05.983Z,7.2
2019-01-23T01:46:05.715Z,7.1
2019-01-23T01:49:05.807Z,7.2
2019-01-23T01:52:05.805Z,7.3
2019-01-23T01:55:05.780Z,7.5
2019-01-23T01:58:10.776Z,7.1
2019-01-23T02:01:05.499Z,7.1
2019-01-23T02:04:05.943Z,7.2
2019-01-23T02:07:05.957Z,7
2019-01-23T02:10:07.084Z,7.2
2019-01-23T02:13:07.139Z,7.2
2019-01-23T02:16:07.082Z,6.9
2019-01-23T02:19:07.093Z,6.8
2019-01-23T02:22:05.886Z,6.9
2019-01-23T02:25:05.453Z,6.9
2019-01-23T02:28:05.544Z,7.1
2019-01-23T02:31:05.741Z,6.9
2019-01-23T02:34:05.494Z,6.8
2019-01-23T02:37:05.863Z,6.9
2019-01-23T02:40:05.458Z,6.9
2019-01-23T02:43:05.801Z,6.8
2019-01-23T02:46:05.861Z,6.7
2019-01-23T02:49:05.876Z,6.7
2019-01-23T02:52:05.496Z,7.1
2019-01-23T02:55:05.936Z,6.8
2019-01-23T02:58:05.554Z,6.9
2019-01-23T03:01:05.831Z,7.2
2019-01-23T03:04:05.872Z,7.1
2019-01-23T03:07:07.393Z,6.7
2019-01-23T03:10:05.832Z,6.7
2019-01-23T03:13:05.870Z,6.8
2019-01-23T03:16:05.903Z,6.6
2019-01-23T03:19:05.863Z,6.6
2019-01-23T03:22:05.827Z,6.8
2019-01-23T03:25:05.779Z,6.8
2019-01-23T03:28:05.554Z,6.9
2019-01-23T03:31:06.129Z,6.9
2019-01-23T03:34:05.511Z,6.8
2019-01-23T03:37:05.880Z,6.8
2019-01-23T03:40:05.698Z,6.9
2019-01-23T03:43:05.892Z,6.7
2019-01-23T03:46:05.572Z,6.8
2019-01-23T03:49:05.501Z,6.7
2019-01-23T03:52:05.477Z,6.5
2019-01-23T03:55:05.655Z,6.7
2019-01-23T03:58:05.543Z,6.6
2019-01-23T04:01:05.423Z,6.6
2019-01-23T04:04:05.478Z,6.6
2019-01-23T04:07:11.124Z,6.8
2019-01-23T04:10:07.332Z,6.6
2019-01-23T04:13:06.072Z,6.6
2019-01-23T04:16:05.873Z,6.5
2019-01-23T04:19:05.723Z,6.6
2019-01-23T04:22:05.664Z,6.6
2019-01-23T04:25:05.938Z,6.7
2019-01-23T04:28:05.490Z,6.7
2019-01-23T04:31:05.494Z,6.5
2019-01-23T04:34:05.519Z,6.6
2019-01-23T04:37:05.417Z,6.5
2019-01-23T04:40:05.726Z,6.5
2019-01-23T04:43:05.385Z,6.4
2019-01-23T04:46:05.480Z,6.5
2019-01-23T04:49:05.509Z,6.4
2019-01-23T04:52:05.341Z,6.2
2019-01-23T04:55:05.467Z,6.3
2019-01-23T04:58:05.658Z,6.2
2019-01-23T05:01:05.818Z,6
2019-01-23T05:04:05.397Z,6.1
2019-01-23T05:07:05.627Z,6.1
2019-01-23T05:10:05.367Z,6.1
2019-01-23T05:13:05.340Z,6.2
2019-01-23T05:16:05.706Z,6.3
2019-01-23T05:19:05.394Z,5.9
2019-01-23T05:22:05.432Z,5.7
2019-01-23T05:25:08.787Z,5.6
2019-01-23T05:28:05.771Z,5.5
2019-01-23T05:31:05.535Z,5.9
2019-01-23T05:34:05.566Z,5.6
2019-01-23T05:37:05.684Z,5.5
2019-01-23T05:40:05.571Z,5.4
2019-01-23T05:43:05.959Z,5.4
2019-01-23T05:46:06.036Z,5.4
2019-01-23T05:49:05.405Z,5.3
2019-01-23T05:52:05.518Z,5.3
2019-01-23T05:55:05.610Z,5.3
2019-01-23T05:58:05.965Z,5.2
2019-01-23T06:01:06.511Z,5.3
2019-01-23T06:04:05.595Z,5.1
2019-01-23T06:07:05.692Z,5.1
2019-01-23T06:10:05.807Z,5.4
2019-01-23T06:13:06.174Z,5.3
2019-01-23T06:16:05.535Z,5.3
2019-01-23T06:19:05.905Z,5.2
2019-01-23T06:22:05.390Z,5.1
2019-01-23T06:25:06.130Z,5.2
2019-01-23T06:28:05.888Z,5.2
2019-01-23T06:31:05.457Z,5.1
2019-01-23T06:34:05.603Z,5.2
2019-01-23T06:37:05.283Z,5
2019-01-23T06:40:05.502Z,5.1
2019-01-23T06:43:06.011Z,5
2019-01-23T06:46:05.493Z,5.1
2019-01-23T06:49:05.916Z,5
2019-01-23T06:52:05.573Z,5.1
2019-01-23T06:55:05.989Z,5.1
2019-01-23T06:58:05.791Z,5.1
2019-01-23T07:01:05.707Z,5
2019-01-23T07:04:05.474Z,4.9
2019-01-23T07:07:06.880Z,4.8
2019-01-23T07:12:15.693Z,6.1
2019-01-23T07:15:15.286Z,5.8
2019-01-23T07:18:15.849Z,5.8
2019-01-23T07:21:15.912Z,7.2
2019-01-23T07:24:15.840Z,6.5
2019-01-23T07:27:15.504Z,6.5
2019-01-23T07:30:15.629Z,5.6
2019-01-23T07:33:15.794Z,5.7
2019-01-23T07:36:16.050Z,5.4
2019-01-23T07:39:15.812Z,5.4
2019-01-23T07:42:15.677Z,5.8
2019-01-23T07:45:15.821Z,5.4
2019-01-23T07:48:17.309Z,5.7
2019-01-23T07:51:15.408Z,6
2019-01-23T07:54:16.439Z,5.5
2019-01-23T07:57:15.404Z,5.1
2019-01-23T08:00:16.032Z,5
2019-01-23T08:03:15.440Z,4.9
2019-01-23T08:06:15.641Z,4.8
2019-01-23T08:09:15.769Z,5.7
2019-01-23T08:12:15.955Z,6
2019-01-23T08:15:15.702Z,5.3
2019-01-23T08:18:16.030Z,5.7
2019-01-23T08:21:15.970Z,6.1
2019-01-23T08:24:15.486Z,5.6
2019-01-23T08:27:15.591Z,6
2019-01-23T08:30:15.618Z,5.4
2019-01-23T08:33:15.739Z,5.1
2019-01-23T08:36:17.371Z,5.1
2019-01-23T08:39:15.440Z,5
2019-01-23T08:42:15.903Z,5
2019-01-23T08:45:15.554Z,5.4
2019-01-23T08:48:15.437Z,7.5
2019-01-23T08:51:15.540Z,6.4
2019-01-23T08:54:15.561Z,6.6
2019-01-23T08:57:15.489Z,6.2
2019-01-23T09:00:15.444Z,5.5
2019-01-23T09:03:15.405Z,5.4
2019-01-23T09:06:15.777Z,5.3
2019-01-23T09:09:16.174Z,5.4
2019-01-23T09:12:16.951Z,5.7
2019-01-23T09:15:15.743Z,5.6
2019-01-23T09:18:15.753Z,5.3
2019-01-23T09:21:16.080Z,5.1
2019-01-23T09:24:15.965Z,5.4
2019-01-23T09:27:15.621Z,5.1
2019-01-23T09:30:16.473Z,5.1
2019-01-23T09:33:15.552Z,11.3
2019-01-23T09:36:15.916Z,8.4
2019-01-23T09:39:16.444Z,7.2
2019-01-23T09:42:16.147Z,8.7
2019-01-23T09:45:15.485Z,7.5
2019-01-23T09:48:15.361Z,8
2019-01-23T09:51:15.401Z,7.3
2019-01-23T09:54:15.379Z,6.5
2019-01-23T09:57:15.432Z,7.1
2019-01-23T10:02:24.293Z,6.3
2019-01-23T10:05:23.263Z,6.4
2019-01-23T10:08:22.909Z,6.3
2019-01-23T10:11:24.534Z,5.7
2019-01-23T10:14:22.999Z,6.1
2019-01-23T10:17:22.946Z,5.6
2019-01-23T10:20:22.826Z,5.5
2019-01-23T10:23:22.850Z,5.9
2019-01-23T10:26:22.397Z,6
2019-01-23T10:29:22.719Z,5.6
2019-01-23T10:32:23.083Z,5.5
2019-01-23T10:35:22.764Z,5.7
2019-01-23T10:38:22.590Z,5.4
2019-01-23T10:41:22.901Z,5.3
2019-01-23T10:44:22.827Z,5.7
2019-01-23T10:47:22.806Z,5.4
2019-01-23T10:50:22.540Z,5.5
2019-01-23T10:53:22.979Z,5.3
2019-01-23T10:56:22.829Z,5.2
2019-01-23T10:59:22.744Z,5.5
2019-01-23T11:02:23.060Z,5.3
2019-01-23T11:05:22.982Z,5.2
2019-01-23T11:08:24.497Z,5.1
2019-01-23T11:11:23.297Z,5.2
2019-01-23T11:14:23.160Z,5.6
2019-01-23T11:17:23.039Z,5.4
2019-01-23T11:20:22.910Z,5.2
2019-01-23T11:23:22.419Z,5.1
2019-01-23T11:26:22.829Z,5
2019-01-23T11:29:22.780Z,5.1
2019-01-23T11:32:23.057Z,5.6
2019-01-23T11:35:22.807Z,5.5
2019-01-23T11:38:22.484Z,5.2
2019-01-23T11:41:23.194Z,5.2
2019-01-23T11:44:23.660Z,5
2019-01-23T11:47:22.620Z,5.1
2019-01-23T11:50:23.477Z,6.9
2019-01-23T11:53:22.713Z,7.5
2019-01-23T11:56:22.523Z,8
2019-01-23T11:59:22.884Z,7.3
2019-01-23T12:02:22.693Z,6.6
2019-01-23T12:05:23.425Z,6.2
2019-01-23T12:08:23.160Z,5.9
2019-01-23T12:11:22.773Z,5.7
2019-01-23T12:14:22.821Z,5.6
2019-01-23T12:17:22.496Z,5.3
2019-01-23T12:20:22.373Z,5.4
2019-01-23T12:23:22.483Z,5.4
2019-01-23T12:26:22.329Z,5.2
2019-01-23T12:29:22.716Z,5.2
2019-01-23T12:32:22.864Z,5.1
2019-01-23T12:35:22.837Z,5.4
2019-01-23T12:38:22.901Z,5.3
2019-01-23T12:41:22.462Z,5.1
2019-01-23T12:44:22.987Z,5.2
2019-01-23T12:47:22.796Z,5.1
2019-01-23T12:50:22.515Z,5.3
2019-01-23T12:53:24.318Z,5.3
2019-01-23T12:56:22.532Z,5.3
2019-01-23T12:59:22.886Z,5
2019-01-23T13:02:22.408Z,5
2019-01-23T13:05:22.342Z,5.5
2019-01-23T13:08:22.819Z,5.5
2019-01-23T13:11:22.752Z,5.3
2019-01-23T13:14:23.294Z,5.6
2019-01-23T13:17:23.688Z,6.8
2019-01-23T13:20:22.591Z,6.6
2019-01-23T13:23:22.369Z,5.9
2019-01-23T13:26:22.798Z,5.6
2019-01-23T13:29:23.478Z,5.6
2019-01-23T13:32:22.928Z,5.9
2019-01-23T13:35:23.045Z,5.8
2019-01-23T13:38:22.515Z,5.5
2019-01-23T13:41:22.496Z,6.3
2019-01-23T13:44:23.061Z,6.2
2019-01-23T13:47:22.723Z,6.4
2019-01-23T13:50:22.315Z,6.1
2019-01-23T13:53:23.193Z,7
2019-01-23T13:56:22.555Z,8.8
2019-01-23T13:59:22.306Z,8.1
2019-01-23T14:02:22.273Z,7.6
2019-01-23T14:05:22.972Z,6.8
2019-01-23T14:08:22.449Z,6.3
2019-01-23T14:11:22.880Z,6.2
2019-01-23T14:14:22.790Z,6.2
2019-01-23T14:17:23.338Z,6.9
2019-01-23T14:20:22.595Z,7.7
2019-01-23T14:23:23.072Z,6.9
2019-01-23T14:26:23.033Z,8.2
2019-01-23T14:29:22.338Z,7.1
2019-01-23T14:32:22.921Z,7.1
2019-01-23T14:35:22.719Z,6.7
2019-01-23T14:38:23.019Z,6.4
2019-01-23T14:41:23.376Z,6.4
2019-01-23T14:44:22.929Z,6.5
2019-01-23T14:47:22.933Z,6.9
2019-01-23T14:50:22.479Z,6.5
2019-01-23T14:53:22.445Z,6.3
2019-01-23T14:56:22.891Z,6.2
2019-01-23T14:59:22.503Z,6.2
2019-01-23T15:02:22.527Z,7
2019-01-23T15:05:23.093Z,6.2
2019-01-23T15:08:22.937Z,6.3
2019-01-23T15:11:22.509Z,6.3
2019-01-23T15:14:22.860Z,7.2
2019-01-23T15:17:22.713Z,7.2
2019-01-23T15:20:22.820Z,6.6
2019-01-23T15:23:23.267Z,6.2
2019-01-23T15:26:22.844Z,6.4
2019-01-23T15:29:22.437Z,6
2019-01-23T15:32:22.321Z,6.4
2019-01-23T15:35:22.780Z,7.2
2019-01-23T15:38:22.325Z,6.2
2019-01-23T15:41:22.744Z,5.9
2019-01-23T15:44:22.315Z,5.8
2019-01-23T15:47:22.371Z,6
2019-01-23T15:50:22.396Z,6
2019-01-23T15:53:22.600Z,6.2
2019-01-23T15:56:22.706Z,6
2019-01-23T15:59:22.630Z,5.9
2019-01-23T16:02:24.891Z,5.7
2019-01-23T16:05:22.338Z,5.4
2019-01-23T16:08:22.549Z,6.1
2019-01-23T16:11:22.968Z,6.6
2019-01-23T16:14:22.488Z,6
2019-01-23T16:17:23.143Z,5.7
2019-01-23T16:20:23.378Z,6
2019-01-23T16:23:22.884Z,5.9
2019-01-23T16:26:23.093Z,5.8
2019-01-23T16:29:22.253Z,5.7
2019-01-23T16:32:22.644Z,5.8
2019-01-23T16:35:24.714Z,5.6
2019-01-23T16:38:22.682Z,5.9
2019-01-23T16:41:22.464Z,6.4
2019-01-23T16:44:23.011Z,6.6
2019-01-23T16:47:24.740Z,6.2
2019-01-23T16:50:22.794Z,10.1
2019-01-23T16:53:22.388Z,8.2
2019-01-23T16:56:24.458Z,7.3
2019-01-23T16:59:22.819Z,7.5
2019-01-23T17:02:22.968Z,7.5
2019-01-23T17:05:22.570Z,6.9
2019-01-23T17:08:22.421Z,7.3
2019-01-23T17:11:22.909Z,6.8
2019-01-23T17:14:22.556Z,6.4
2019-01-23T17:17:22.983Z,6.4
2019-01-23T17:20:22.790Z,6.3
2019-01-23T17:23:22.472Z,6.5
2019-01-23T17:26:23.424Z,6.9
2019-01-23T17:29:22.620Z,6.6
2019-01-23T17:32:22.770Z,6.7
2019-01-23T17:35:23.206Z,6.4
2019-01-23T17:38:23.077Z,6.3
2019-01-23T17:41:22.777Z,6.3
2019-01-23T17:44:22.852Z,6.3
2019-01-23T17:47:22.866Z,6.4
2019-01-23T17:50:23.927Z,6.3
2019-01-23T17:53:23.591Z,6.3
2019-01-23T17:56:22.626Z,6.3
2019-01-23T17:59:24.363Z,6.4
2019-01-23T18:02:22.601Z,7.4
2019-01-23T18:05:22.491Z,7.5
2019-01-23T18:08:22.422Z,7
2019-01-23T18:11:22.254Z,6.7
2019-01-23T18:14:22.374Z,6.6
2019-01-23T18:17:22.527Z,6.9
2019-01-23T18:20:30.803Z,7.1
2019-01-23T18:23:22.962Z,7
2019-01-23T18:26:22.797Z,7.1
2019-01-23T18:29:22.390Z,6.8
2019-01-23T18:32:22.764Z,7.6
2019-01-23T18:35:23.381Z,7.3
2019-01-23T18:38:22.864Z,7
2019-01-23T18:41:25.192Z,7.2
2019-01-23T18:44:22.423Z,7
2019-01-23T18:47:23.518Z,6.8
2019-01-23T18:50:22.719Z,6.8
2019-01-23T18:53:22.426Z,6.7
2019-01-23T18:56:22.414Z,6.4
2019-01-23T18:59:22.767Z,6.5
2019-01-23T19:02:22.515Z,6.7
2019-01-23T19:05:22.516Z,6.9
2019-01-23T19:08:22.845Z,6.8
2019-01-23T19:11:24.019Z,6.8
2019-01-23T19:14:25.054Z,6.6
2019-01-23T19:17:22.497Z,6.5
2019-01-23T19:20:23.674Z,6.6
2019-01-23T19:23:22.490Z,6.9
2019-01-23T19:26:22.769Z,6.9
2019-01-23T19:29:23.479Z,6.9
2019-01-23T19:32:23.893Z,6.7
2019-01-23T19:35:24.579Z,6.5
2019-01-23T19:38:22.851Z,6.6
2019-01-23T19:41:22.256Z,6.4
2019-01-23T19:44:22.275Z,6.5
2019-01-23T19:47:24.515Z,6.5
2019-01-23T19:50:22.387Z,6.5
2019-01-23T19:53:24.556Z,6.8
2019-01-23T19:56:24.256Z,7.2
2019-01-23T19:59:22.483Z,7
2019-01-23T20:02:22.295Z,7.8
2019-01-23T20:05:24.264Z,8.1
2019-01-23T20:08:22.899Z,7.4
2019-01-23T20:11:23.243Z,7.2
2019-01-23T20:14:23.920Z,7.1
2019-01-23T20:17:24.869Z,7
2019-01-23T20:20:23.063Z,8.3
2019-01-23T20:23:23.427Z,7.7
2019-01-23T20:26:22.173Z,7.2
2019-01-23T20:29:22.266Z,7.8
2019-01-23T20:32:22.600Z,7.9
2019-01-23T20:35:22.418Z,8.3
2019-01-23T20:38:22.460Z,10.3
2019-01-23T20:41:22.496Z,11
2019-01-23T20:44:22.439Z,10.2
2019-01-23T20:47:22.501Z,8.9
2019-01-23T20:50:23.598Z,8.6
2019-01-23T20:53:22.582Z,9
2019-01-23T20:56:22.970Z,10.2
2019-01-23T20:59:22.518Z,10.9
2019-01-23T21:02:22.524Z,11.8
2019-01-23T21:05:22.439Z,12.3
2019-01-23T21:08:23.052Z,11.3
2019-01-23T21:11:22.803Z,11.3
2019-01-23T21:14:22.559Z,10.5
2019-01-23T21:17:22.979Z,10.6
2019-01-23T21:20:22.596Z,9.9
2019-01-23T21:23:22.733Z,11.1
2019-01-23T21:26:22.678Z,10.4
2019-01-23T21:29:22.666Z,10
2019-01-23T21:32:22.959Z,8.9
2019-01-23T21:35:22.682Z,9.2
2019-01-23T21:38:22.343Z,9.3
2019-01-23T21:41:22.839Z,8.9
2019-01-23T21:44:22.402Z,10
2019-01-23T21:47:22.962Z,9.7
2019-01-23T21:50:23.053Z,9.8
2019-01-23T21:53:22.283Z,9.8
2019-01-23T21:56:22.196Z,8.9
2019-01-23T21:59:22.472Z,8.3
2019-01-23T22:02:22.250Z,8.3
2019-01-23T22:05:22.305Z,8.9
2019-01-23T22:08:22.560Z,8.6
2019-01-23T22:11:28.059Z,8.4
2019-01-23T22:14:22.510Z,8.2
2019-01-23T22:17:22.244Z,8.1
2019-01-23T22:20:22.575Z,8.3
2019-01-23T22:23:22.559Z,8.3
2019-01-23T22:26:22.382Z,8.2
2019-01-23T22:29:22.273Z,8.1
2019-01-23T22:32:22.418Z,8
2019-01-23T22:35:22.040Z,8.5
2019-01-23T22:38:22.800Z,8.6
2019-01-23T22:41:22.209Z,8.5
2019-01-23T22:44:23.203Z,8.2
2019-01-23T22:47:22.762Z,8.2
2019-01-23T22:50:22.635Z,8.4
2019-01-23T22:53:22.371Z,8.9
2019-01-23T22:56:22.568Z,9.2
2019-01-23T22:59:22.492Z,9.2
2019-01-23T23:02:25.910Z,8.7
2019-01-23T23:05:24.173Z,8.5
2019-01-23T23:08:22.133Z,8.5
2019-01-23T23:11:24.126Z,8.6
2019-01-23T23:14:23.525Z,9.1
2019-01-23T23:17:22.675Z,9
2019-01-23T23:20:22.948Z,8.6
2019-01-23T23:23:22.623Z,8.6
2019-01-23T23:26:24.800Z,8.6
2019-01-23T23:29:25.166Z,8.8
2019-01-23T23:32:23.134Z,8.4
2019-01-23T23:35:22.166Z,8.5
2019-01-23T23:38:22.215Z,8.6
2019-01-23T23:41:22.160Z,9.1
2019-01-23T23:44:22.304Z,9.1
2019-01-23T23:47:22.530Z,9
2019-01-23T23:50:22.232Z,8.9
2019-01-23T23:53:22.438Z,8.8
2019-01-23T23:56:22.291Z,8.8
2019-01-23T23:59:22.284Z,8.7
